Antelope, Texas
Current Conditions -  °F | °C
As of 4:50 AM on Saturday 25 Oct 2014 (Local Time) from KRPH Reporting Station
Clear Clear  
Wind Chill: 66°   Ceiling: Unl
Heat Index: 66°   Visibility: 10mi
Dew Point: 59°   Wind: 5mph
Humidity: 77%   Direction: 170°S
Pressure: 30.08"   Gusts: NA
Location:  33.4259°N, 98.383°W
Report Text: KRPH 250950Z AUTO 17004KT 10SM CLR 19/15 A3008 RMK AO2 T01900148
Loading
Personal Weather Stations






























Interactive Weather Map New forecast layout! Learn more

10-Day Weather Forecast

Advertisements
Track Severe Weather on mobile